sensor_id;sensor_type;location;lat;lon;timestamp;P1;durP1;ratioP1;P2;durP2;ratioP2
33824;SDS011;20127;48.962;8.342;2023-05-07T00:02:16;6.32;;;5.10;;
33824;SDS011;20127;48.962;8.342;2023-05-07T00:05:17;10.10;;;6.07;;
33824;SDS011;20127;48.962;8.342;2023-05-07T00:08:19;6.55;;;5.93;;
33824;SDS011;20127;48.962;8.342;2023-05-07T00:11:21;6.47;;;4.80;;
33824;SDS011;20127;48.962;8.342;2023-05-07T00:14:24;6.38;;;5.70;;
33824;SDS011;20127;48.962;8.342;2023-05-07T00:17:26;6.45;;;5.60;;
33824;SDS011;20127;48.962;8.342;2023-05-07T00:20:28;7.28;;;6.60;;
33824;SDS011;20127;48.962;8.342;2023-05-07T00:23:29;7.93;;;5.40;;
33824;SDS011;20127;48.962;8.342;2023-05-07T00:26:31;7.07;;;6.38;;
33824;SDS011;20127;48.962;8.342;2023-05-07T00:29:34;7.47;;;5.38;;
33824;SDS011;20127;48.962;8.342;2023-05-07T00:32:36;5.75;;;5.18;;
33824;SDS011;20127;48.962;8.342;2023-05-07T00:35:38;5.90;;;5.30;;
33824;SDS011;20127;48.962;8.342;2023-05-07T00:38:40;6.65;;;5.80;;
33824;SDS011;20127;48.962;8.342;2023-05-07T00:41:42;6.50;;;5.45;;
33824;SDS011;20127;48.962;8.342;2023-05-07T00:44:45;7.15;;;5.72;;
33824;SDS011;20127;48.962;8.342;2023-05-07T00:47:47;5.78;;;5.25;;
33824;SDS011;20127;48.962;8.342;2023-05-07T00:50:48;6.85;;;6.25;;
33824;SDS011;20127;48.962;8.342;2023-05-07T00:53:50;5.28;;;4.78;;
33824;SDS011;20127;48.962;8.342;2023-05-07T00:56:52;6.72;;;5.35;;
33824;SDS011;20127;48.962;8.342;2023-05-07T00:59:56;5.35;;;4.95;;
33824;SDS011;20127;48.962;8.342;2023-05-07T01:02:57;8.00;;;6.10;;
33824;SDS011;20127;48.962;8.342;2023-05-07T01:05:59;6.90;;;6.18;;
33824;SDS011;20127;48.962;8.342;2023-05-07T01:09:03;5.97;;;5.32;;
33824;SDS011;20127;48.962;8.342;2023-05-07T01:12:05;9.32;;;6.03;;
33824;SDS011;20127;48.962;8.342;2023-05-07T01:15:09;6.72;;;5.38;;
33824;SDS011;20127;48.962;8.342;2023-05-07T01:18:11;6.28;;;5.30;;
33824;SDS011;20127;48.962;8.342;2023-05-07T01:21:15;6.85;;;6.15;;
33824;SDS011;20127;48.962;8.342;2023-05-07T01:24:20;7.53;;;5.85;;
33824;SDS011;20127;48.962;8.342;2023-05-07T01:27:22;7.65;;;5.45;;
33824;SDS011;20127;48.962;8.342;2023-05-07T01:30:23;6.28;;;4.82;;
33824;SDS011;20127;48.962;8.342;2023-05-07T01:33:25;5.88;;;4.97;;
33824;SDS011;20127;48.962;8.342;2023-05-07T01:36:31;5.05;;;4.50;;
33824;SDS011;20127;48.962;8.342;2023-05-07T01:39:35;7.88;;;5.38;;
33824;SDS011;20127;48.962;8.342;2023-05-07T01:42:39;6.65;;;6.05;;
33824;SDS011;20127;48.962;8.342;2023-05-07T01:45:43;5.15;;;4.65;;
33824;SDS011;20127;48.962;8.342;2023-05-07T01:48:46;9.55;;;6.75;;
33824;SDS011;20127;48.962;8.342;2023-05-07T01:51:48;7.45;;;4.60;;
33824;SDS011;20127;48.962;8.342;2023-05-07T01:54:51;5.60;;;5.10;;
33824;SDS011;20127;48.962;8.342;2023-05-07T01:57:53;9.90;;;5.07;;
33824;SDS011;20127;48.962;8.342;2023-05-07T02:00:55;5.85;;;5.25;;
33824;SDS011;20127;48.962;8.342;2023-05-07T02:03:57;6.25;;;5.05;;
33824;SDS011;20127;48.962;8.342;2023-05-07T02:06:58;4.82;;;4.43;;
33824;SDS011;20127;48.962;8.342;2023-05-07T02:10:01;6.38;;;5.10;;
33824;SDS011;20127;48.962;8.342;2023-05-07T02:13:04;6.50;;;5.82;;
33824;SDS011;20127;48.962;8.342;2023-05-07T02:16:05;5.18;;;4.20;;
33824;SDS011;20127;48.962;8.342;2023-05-07T02:19:07;5.32;;;4.82;;
33824;SDS011;20127;48.962;8.342;2023-05-07T02:22:09;8.35;;;6.07;;
33824;SDS011;20127;48.962;8.342;2023-05-07T02:25:12;5.18;;;4.70;;
33824;SDS011;20127;48.962;8.342;2023-05-07T02:28:14;5.25;;;4.80;;
33824;SDS011;20127;48.962;8.342;2023-05-07T02:31:16;5.35;;;4.78;;
33824;SDS011;20127;48.962;8.342;2023-05-07T02:34:18;5.68;;;4.38;;
33824;SDS011;20127;48.962;8.342;2023-05-07T02:37:19;5.68;;;4.43;;
33824;SDS011;20127;48.962;8.342;2023-05-07T02:40:23;6.15;;;5.03;;
33824;SDS011;20127;48.962;8.342;2023-05-07T02:43:25;5.55;;;5.15;;
33824;SDS011;20127;48.962;8.342;2023-05-07T02:46:26;5.63;;;5.18;;
33824;SDS011;20127;48.962;8.342;2023-05-07T02:49:28;6.38;;;5.82;;
33824;SDS011;20127;48.962;8.342;2023-05-07T02:52:29;5.40;;;4.90;;
33824;SDS011;20127;48.962;8.342;2023-05-07T02:55:32;7.38;;;6.68;;
33824;SDS011;20127;48.962;8.342;2023-05-07T02:58:34;5.32;;;4.82;;
33824;SDS011;20127;48.962;8.342;2023-05-07T03:01:36;6.55;;;5.90;;
33824;SDS011;20127;48.962;8.342;2023-05-07T03:04:38;4.78;;;4.28;;
33824;SDS011;20127;48.962;8.342;2023-05-07T03:07:41;8.90;;;5.10;;
33824;SDS011;20127;48.962;8.342;2023-05-07T03:10:46;6.55;;;4.10;;
33824;SDS011;20127;48.962;8.342;2023-05-07T03:13:48;6.75;;;5.28;;
33824;SDS011;20127;48.962;8.342;2023-05-07T03:16:50;7.45;;;5.07;;
33824;SDS011;20127;48.962;8.342;2023-05-07T03:19:52;6.82;;;5.22;;
33824;SDS011;20127;48.962;8.342;2023-05-07T03:22:53;5.65;;;5.15;;
33824;SDS011;20127;48.962;8.342;2023-05-07T03:25:57;6.80;;;6.00;;
33824;SDS011;20127;48.962;8.342;2023-05-07T03:28:58;5.20;;;4.70;;
33824;SDS011;20127;48.962;8.342;2023-05-07T03:32:00;5.22;;;4.63;;
33824;SDS011;20127;48.962;8.342;2023-05-07T03:35:02;7.65;;;5.00;;
33824;SDS011;20127;48.962;8.342;2023-05-07T03:38:04;7.57;;;4.93;;
33824;SDS011;20127;48.962;8.342;2023-05-07T03:41:07;6.43;;;5.82;;
33824;SDS011;20127;48.962;8.342;2023-05-07T03:44:08;7.57;;;5.88;;
33824;SDS011;20127;48.962;8.342;2023-05-07T03:47:10;7.20;;;5.50;;
33824;SDS011;20127;48.962;8.342;2023-05-07T03:50:13;5.75;;;5.00;;
33824;SDS011;20127;48.962;8.342;2023-05-07T03:53:15;5.35;;;4.80;;
33824;SDS011;20127;48.962;8.342;2023-05-07T03:56:18;6.47;;;4.93;;
33824;SDS011;20127;48.962;8.342;2023-05-07T03:59:19;6.90;;;5.00;;
33824;SDS011;20127;48.962;8.342;2023-05-07T04:02:21;8.10;;;5.95;;
33824;SDS011;20127;48.962;8.342;2023-05-07T04:05:23;5.97;;;5.43;;
33824;SDS011;20127;48.962;8.342;2023-05-07T04:08:25;9.10;;;5.63;;
33824;SDS011;20127;48.962;8.342;2023-05-07T04:11:28;8.95;;;5.80;;
33824;SDS011;20127;48.962;8.342;2023-05-07T04:14:29;7.20;;;6.50;;
33824;SDS011;20127;48.962;8.342;2023-05-07T04:17:32;7.15;;;5.80;;
33824;SDS011;20127;48.962;8.342;2023-05-07T04:20:34;7.95;;;6.40;;
33824;SDS011;20127;48.962;8.342;2023-05-07T04:23:36;6.43;;;5.78;;
33824;SDS011;20127;48.962;8.342;2023-05-07T04:26:39;5.63;;;4.68;;
33824;SDS011;20127;48.962;8.342;2023-05-07T04:29:41;5.90;;;5.30;;
33824;SDS011;20127;48.962;8.342;2023-05-07T04:32:47;5.22;;;4.72;;
33824;SDS011;20127;48.962;8.342;2023-05-07T04:35:49;6.03;;;4.43;;
33824;SDS011;20127;48.962;8.342;2023-05-07T04:38:50;6.47;;;4.50;;
33824;SDS011;20127;48.962;8.342;2023-05-07T04:41:53;5.60;;;5.10;;
33824;SDS011;20127;48.962;8.342;2023-05-07T04:44:55;5.30;;;4.78;;
33824;SDS011;20127;48.962;8.342;2023-05-07T04:47:57;5.28;;;4.80;;
33824;SDS011;20127;48.962;8.342;2023-05-07T04:50:58;8.63;;;5.35;;
33824;SDS011;20127;48.962;8.342;2023-05-07T04:54:00;6.00;;;4.95;;
33824;SDS011;20127;48.962;8.342;2023-05-07T04:57:04;5.32;;;4.80;;
33824;SDS011;20127;48.962;8.342;2023-05-07T05:00:06;11.80;;;5.53;;
33824;SDS011;20127;48.962;8.342;2023-05-07T05:03:09;6.05;;;5.22;;
33824;SDS011;20127;48.962;8.342;2023-05-07T05:06:11;5.30;;;4.22;;
33824;SDS011;20127;48.962;8.342;2023-05-07T05:09:13;4.22;;;3.75;;
33824;SDS011;20127;48.962;8.342;2023-05-07T05:12:17;5.10;;;4.70;;
33824;SDS011;20127;48.962;8.342;2023-05-07T05:15:19;4.93;;;4.50;;
33824;SDS011;20127;48.962;8.342;2023-05-07T05:18:20;6.15;;;4.38;;
33824;SDS011;20127;48.962;8.342;2023-05-07T05:21:22;5.43;;;4.93;;
33824;SDS011;20127;48.962;8.342;2023-05-07T05:24:24;5.18;;;4.20;;
33824;SDS011;20127;48.962;8.342;2023-05-07T05:27:27;6.78;;;4.28;;
33824;SDS011;20127;48.962;8.342;2023-05-07T05:30:29;5.35;;;4.22;;
33824;SDS011;20127;48.962;8.342;2023-05-07T05:33:31;6.90;;;4.38;;
33824;SDS011;20127;48.962;8.342;2023-05-07T05:36:33;5.05;;;3.78;;
33824;SDS011;20127;48.962;8.342;2023-05-07T05:39:34;4.47;;;4.07;;
33824;SDS011;20127;48.962;8.342;2023-05-07T05:42:37;7.80;;;4.78;;
33824;SDS011;20127;48.962;8.342;2023-05-07T05:45:39;6.93;;;4.53;;
33824;SDS011;20127;48.962;8.342;2023-05-07T05:48:41;4.57;;;4.18;;
33824;SDS011;20127;48.962;8.342;2023-05-07T05:51:42;4.38;;;3.97;;
33824;SDS011;20127;48.962;8.342;2023-05-07T05:54:44;5.50;;;4.65;;
33824;SDS011;20127;48.962;8.342;2023-05-07T05:57:47;4.85;;;4.10;;
33824;SDS011;20127;48.962;8.342;2023-05-07T06:00:50;4.13;;;3.83;;
33824;SDS011;20127;48.962;8.342;2023-05-07T06:03:53;6.88;;;4.50;;
33824;SDS011;20127;48.962;8.342;2023-05-07T06:06:54;6.25;;;4.18;;
33824;SDS011;20127;48.962;8.342;2023-05-07T06:09:56;4.07;;;3.67;;
33824;SDS011;20127;48.962;8.342;2023-05-07T06:12:59;4.93;;;4.25;;
33824;SDS011;20127;48.962;8.342;2023-05-07T06:16:01;4.60;;;4.20;;
33824;SDS011;20127;48.962;8.342;2023-05-07T06:19:03;10.73;;;4.90;;
33824;SDS011;20127;48.962;8.342;2023-05-07T06:22:04;4.57;;;3.20;;
33824;SDS011;20127;48.962;8.342;2023-05-07T06:25:06;7.22;;;3.55;;
33824;SDS011;20127;48.962;8.342;2023-05-07T06:28:10;5.85;;;3.33;;
33824;SDS011;20127;48.962;8.342;2023-05-07T06:31:12;4.25;;;3.30;;
33824;SDS011;20127;48.962;8.342;2023-05-07T06:34:15;6.32;;;3.35;;
33824;SDS011;20127;48.962;8.342;2023-05-07T06:37:16;4.38;;;3.30;;
33824;SDS011;20127;48.962;8.342;2023-05-07T06:40:18;4.78;;;3.13;;
33824;SDS011;20127;48.962;8.342;2023-05-07T06:43:21;4.95;;;3.67;;
33824;SDS011;20127;48.962;8.342;2023-05-07T06:46:23;3.50;;;3.20;;
33824;SDS011;20127;48.962;8.342;2023-05-07T06:49:24;6.30;;;3.40;;
33824;SDS011;20127;48.962;8.342;2023-05-07T06:52:26;4.13;;;3.58;;
33824;SDS011;20127;48.962;8.342;2023-05-07T06:55:28;3.50;;;3.20;;
33824;SDS011;20127;48.962;8.342;2023-05-07T06:58:31;5.00;;;3.20;;
33824;SDS011;20127;48.962;8.342;2023-05-07T07:01:32;4.53;;;2.70;;
33824;SDS011;20127;48.962;8.342;2023-05-07T07:04:34;7.07;;;3.85;;
33824;SDS011;20127;48.962;8.342;2023-05-07T07:07:36;2.88;;;2.67;;
33824;SDS011;20127;48.962;8.342;2023-05-07T07:10:37;9.15;;;3.88;;
33824;SDS011;20127;48.962;8.342;2023-05-07T07:13:40;4.63;;;2.33;;
33824;SDS011;20127;48.962;8.342;2023-05-07T07:16:43;3.38;;;2.97;;
33824;SDS011;20127;48.962;8.342;2023-05-07T07:19:46;5.03;;;2.25;;
33824;SDS011;20127;48.962;8.342;2023-05-07T07:22:48;4.20;;;2.17;;
33824;SDS011;20127;48.962;8.342;2023-05-07T07:25:50;4.22;;;2.15;;
33824;SDS011;20127;48.962;8.342;2023-05-07T07:28:53;4.63;;;2.83;;
33824;SDS011;20127;48.962;8.342;2023-05-07T07:31:54;3.38;;;2.33;;
33824;SDS011;20127;48.962;8.342;2023-05-07T07:34:56;3.38;;;2.65;;
33824;SDS011;20127;48.962;8.342;2023-05-07T07:37:58;3.05;;;2.55;;
33824;SDS011;20127;48.962;8.342;2023-05-07T07:40:59;5.63;;;2.35;;
33824;SDS011;20127;48.962;8.342;2023-05-07T07:44:03;4.85;;;2.75;;
33824;SDS011;20127;48.962;8.342;2023-05-07T07:47:07;3.15;;;2.45;;
33824;SDS011;20127;48.962;8.342;2023-05-07T07:50:09;3.97;;;2.45;;
33824;SDS011;20127;48.962;8.342;2023-05-07T07:53:11;4.07;;;2.13;;
33824;SDS011;20127;48.962;8.342;2023-05-07T07:56:12;5.88;;;2.25;;
33824;SDS011;20127;48.962;8.342;2023-05-07T07:59:16;3.67;;;2.65;;
33824;SDS011;20127;48.962;8.342;2023-05-07T08:02:19;2.75;;;2.55;;
33824;SDS011;20127;48.962;8.342;2023-05-07T08:05:20;2.67;;;1.75;;
33824;SDS011;20127;48.962;8.342;2023-05-07T08:08:22;3.25;;;1.55;;
33824;SDS011;20127;48.962;8.342;2023-05-07T08:11:24;5.20;;;2.17;;
33824;SDS011;20127;48.962;8.342;2023-05-07T08:14:27;4.97;;;2.25;;
33824;SDS011;20127;48.962;8.342;2023-05-07T08:17:29;2.22;;;2.10;;
33824;SDS011;20127;48.962;8.342;2023-05-07T08:20:31;3.78;;;2.20;;
33824;SDS011;20127;48.962;8.342;2023-05-07T08:23:33;4.53;;;2.35;;
33824;SDS011;20127;48.962;8.342;2023-05-07T08:26:35;3.60;;;2.40;;
33824;SDS011;20127;48.962;8.342;2023-05-07T08:29:40;2.78;;;2.38;;
33824;SDS011;20127;48.962;8.342;2023-05-07T08:32:42;2.75;;;2.25;;
33824;SDS011;20127;48.962;8.342;2023-05-07T08:35:43;5.53;;;2.97;;
33824;SDS011;20127;48.962;8.342;2023-05-07T08:38:45;5.50;;;2.28;;
33824;SDS011;20127;48.962;8.342;2023-05-07T08:41:47;3.58;;;3.20;;
33824;SDS011;20127;48.962;8.342;2023-05-07T08:44:51;4.25;;;3.47;;
33824;SDS011;20127;48.962;8.342;2023-05-07T08:47:55;2.88;;;2.60;;
33824;SDS011;20127;48.962;8.342;2023-05-07T08:51:00;3.13;;;2.67;;
33824;SDS011;20127;48.962;8.342;2023-05-07T08:54:02;3.15;;;2.85;;
33824;SDS011;20127;48.962;8.342;2023-05-07T08:57:04;2.67;;;2.47;;
33824;SDS011;20127;48.962;8.342;2023-05-07T09:00:08;3.28;;;2.90;;
33824;SDS011;20127;48.962;8.342;2023-05-07T09:03:11;5.32;;;2.55;;
33824;SDS011;20127;48.962;8.342;2023-05-07T09:06:14;4.00;;;3.33;;
33824;SDS011;20127;48.962;8.342;2023-05-07T09:09:16;5.90;;;3.20;;
33824;SDS011;20127;48.962;8.342;2023-05-07T09:12:19;3.22;;;2.55;;
33824;SDS011;20127;48.962;8.342;2023-05-07T09:15:22;4.47;;;2.55;;
33824;SDS011;20127;48.962;8.342;2023-05-07T09:18:25;5.72;;;3.55;;
33824;SDS011;20127;48.962;8.342;2023-05-07T09:21:26;9.93;;;3.35;;
33824;SDS011;20127;48.962;8.342;2023-05-07T09:24:28;3.90;;;2.90;;
33824;SDS011;20127;48.962;8.342;2023-05-07T09:27:33;4.55;;;2.92;;
33824;SDS011;20127;48.962;8.342;2023-05-07T09:30:37;9.07;;;3.60;;
33824;SDS011;20127;48.962;8.342;2023-05-07T09:33:38;2.88;;;2.67;;
33824;SDS011;20127;48.962;8.342;2023-05-07T09:36:40;5.97;;;3.08;;
33824;SDS011;20127;48.962;8.342;2023-05-07T09:39:43;5.90;;;3.15;;
33824;SDS011;20127;48.962;8.342;2023-05-07T09:42:46;3.50;;;2.72;;
33824;SDS011;20127;48.962;8.342;2023-05-07T09:45:50;4.78;;;2.33;;
33824;SDS011;20127;48.962;8.342;2023-05-07T09:48:52;7.15;;;3.10;;
33824;SDS011;20127;48.962;8.342;2023-05-07T09:51:57;3.10;;;2.78;;
33824;SDS011;20127;48.962;8.342;2023-05-07T09:55:02;3.72;;;3.15;;
33824;SDS011;20127;48.962;8.342;2023-05-07T09:58:06;3.53;;;2.78;;
33824;SDS011;20127;48.962;8.342;2023-05-07T10:01:10;3.05;;;2.75;;
33824;SDS011;20127;48.962;8.342;2023-05-07T10:04:12;3.55;;;2.38;;
33824;SDS011;20127;48.962;8.342;2023-05-07T10:07:15;2.85;;;2.55;;
33824;SDS011;20127;48.962;8.342;2023-05-07T10:10:18;7.15;;;2.40;;
33824;SDS011;20127;48.962;8.342;2023-05-07T10:13:20;2.75;;;2.08;;
33824;SDS011;20127;48.962;8.342;2023-05-07T10:16:24;3.60;;;2.10;;
33824;SDS011;20127;48.962;8.342;2023-05-07T10:19:28;2.17;;;1.50;;
33824;SDS011;20127;48.962;8.342;2023-05-07T10:22:31;2.63;;;2.42;;
33824;SDS011;20127;48.962;8.342;2023-05-07T10:25:38;4.15;;;2.47;;
33824;SDS011;20127;48.962;8.342;2023-05-07T10:28:41;2.22;;;1.80;;
33824;SDS011;20127;48.962;8.342;2023-05-07T10:31:57;4.13;;;2.45;;
33824;SDS011;20127;48.962;8.342;2023-05-07T10:35:02;2.35;;;1.77;;
33824;SDS011;20127;48.962;8.342;2023-05-07T10:38:05;2.75;;;1.95;;
33824;SDS011;20127;48.962;8.342;2023-05-07T10:41:08;5.25;;;2.78;;
33824;SDS011;20127;48.962;8.342;2023-05-07T10:44:11;2.50;;;1.98;;
33824;SDS011;20127;48.962;8.342;2023-05-07T10:47:14;4.78;;;2.03;;
33824;SDS011;20127;48.962;8.342;2023-05-07T10:50:22;2.60;;;2.15;;
33824;SDS011;20127;48.962;8.342;2023-05-07T10:53:24;2.08;;;1.88;;
33824;SDS011;20127;48.962;8.342;2023-05-07T10:56:29;3.17;;;2.75;;
33824;SDS011;20127;48.962;8.342;2023-05-07T10:59:34;2.45;;;2.03;;
33824;SDS011;20127;48.962;8.342;2023-05-07T11:06:10;3.05;;;2.17;;
33824;SDS011;20127;48.962;8.342;2023-05-07T11:09:13;5.32;;;2.22;;
33824;SDS011;20127;48.962;8.342;2023-05-07T11:12:14;2.28;;;2.08;;
33824;SDS011;20127;48.962;8.342;2023-05-07T11:18:47;2.70;;;1.90;;
33824;SDS011;20127;48.962;8.342;2023-05-07T11:21:49;3.40;;;1.88;;
33824;SDS011;20127;48.962;8.342;2023-05-07T11:24:51;2.47;;;2.25;;
33824;SDS011;20127;48.962;8.342;2023-05-07T11:27:53;1.98;;;1.77;;
33824;SDS011;20127;48.962;8.342;2023-05-07T11:30:57;3.00;;;2.35;;
33824;SDS011;20127;48.962;8.342;2023-05-07T11:34:01;2.50;;;2.03;;
33824;SDS011;20127;48.962;8.342;2023-05-07T11:37:03;3.83;;;1.85;;
33824;SDS011;20127;48.962;8.342;2023-05-07T11:40:05;1.98;;;1.80;;
33824;SDS011;20127;48.962;8.342;2023-05-07T11:43:10;2.80;;;1.90;;
33824;SDS011;20127;48.962;8.342;2023-05-07T11:46:12;2.38;;;2.17;;
33824;SDS011;20127;48.962;8.342;2023-05-07T11:49:15;1.77;;;1.67;;
33824;SDS011;20127;48.962;8.342;2023-05-07T11:52:18;2.75;;;2.03;;
33824;SDS011;20127;48.962;8.342;2023-05-07T11:55:21;3.55;;;1.80;;
33824;SDS011;20127;48.962;8.342;2023-05-07T11:58:24;2.80;;;1.85;;
33824;SDS011;20127;48.962;8.342;2023-05-07T12:01:26;3.22;;;2.05;;
33824;SDS011;20127;48.962;8.342;2023-05-07T12:04:30;3.40;;;2.10;;
33824;SDS011;20127;48.962;8.342;2023-05-07T12:07:33;4.32;;;2.38;;
33824;SDS011;20127;48.962;8.342;2023-05-07T12:10:34;6.20;;;2.40;;
33824;SDS011;20127;48.962;8.342;2023-05-07T12:13:42;1.90;;;1.80;;
33824;SDS011;20127;48.962;8.342;2023-05-07T12:16:43;4.47;;;1.98;;
33824;SDS011;20127;48.962;8.342;2023-05-07T12:19:47;2.88;;;2.28;;
33824;SDS011;20127;48.962;8.342;2023-05-07T12:22:49;2.80;;;2.42;;
33824;SDS011;20127;48.962;8.342;2023-05-07T12:25:52;2.17;;;1.98;;
33824;SDS011;20127;48.962;8.342;2023-05-07T12:28:54;2.67;;;1.90;;
33824;SDS011;20127;48.962;8.342;2023-05-07T12:31:55;3.08;;;2.53;;
33824;SDS011;20127;48.962;8.342;2023-05-07T12:34:58;2.85;;;2.03;;
33824;SDS011;20127;48.962;8.342;2023-05-07T12:38:00;3.03;;;2.83;;
33824;SDS011;20127;48.962;8.342;2023-05-07T12:41:04;4.60;;;2.20;;
33824;SDS011;20127;48.962;8.342;2023-05-07T12:44:07;6.32;;;2.15;;
33824;SDS011;20127;48.962;8.342;2023-05-07T12:47:09;3.75;;;2.85;;
33824;SDS011;20127;48.962;8.342;2023-05-07T12:50:12;2.72;;;2.53;;
33824;SDS011;20127;48.962;8.342;2023-05-07T12:53:14;7.70;;;3.70;;
33824;SDS011;20127;48.962;8.342;2023-05-07T12:56:15;7.82;;;2.67;;
33824;SDS011;20127;48.962;8.342;2023-05-07T12:59:17;6.68;;;2.78;;
33824;SDS011;20127;48.962;8.342;2023-05-07T13:02:19;3.45;;;2.50;;
33824;SDS011;20127;48.962;8.342;2023-05-07T13:05:22;2.53;;;2.17;;
33824;SDS011;20127;48.962;8.342;2023-05-07T13:08:25;4.78;;;1.90;;
33824;SDS011;20127;48.962;8.342;2023-05-07T13:11:28;2.33;;;2.13;;
33824;SDS011;20127;48.962;8.342;2023-05-07T13:14:31;6.43;;;3.35;;
33824;SDS011;20127;48.962;8.342;2023-05-07T13:17:32;3.58;;;2.33;;
33824;SDS011;20127;48.962;8.342;2023-05-07T13:20:35;3.42;;;2.65;;
33824;SDS011;20127;48.962;8.342;2023-05-07T13:23:37;2.08;;;1.80;;
33824;SDS011;20127;48.962;8.342;2023-05-07T13:26:39;2.22;;;2.00;;
33824;SDS011;20127;48.962;8.342;2023-05-07T13:29:40;3.40;;;2.40;;
33824;SDS011;20127;48.962;8.342;2023-05-07T13:32:42;3.55;;;2.10;;
33824;SDS011;20127;48.962;8.342;2023-05-07T13:35:46;7.03;;;2.80;;
33824;SDS011;20127;48.962;8.342;2023-05-07T13:38:50;4.10;;;1.95;;
33824;SDS011;20127;48.962;8.342;2023-05-07T13:41:52;3.30;;;1.92;;
33824;SDS011;20127;48.962;8.342;2023-05-07T13:44:53;3.92;;;2.08;;
33824;SDS011;20127;48.962;8.342;2023-05-07T13:47:56;4.85;;;2.60;;
33824;SDS011;20127;48.962;8.342;2023-05-07T13:51:00;6.38;;;2.38;;
33824;SDS011;20127;48.962;8.342;2023-05-07T13:54:01;2.95;;;1.95;;
33824;SDS011;20127;48.962;8.342;2023-05-07T13:57:04;3.72;;;3.33;;
33824;SDS011;20127;48.962;8.342;2023-05-07T14:00:06;4.45;;;3.72;;
33824;SDS011;20127;48.962;8.342;2023-05-07T14:03:08;8.35;;;3.90;;
33824;SDS011;20127;48.962;8.342;2023-05-07T14:06:11;9.23;;;4.18;;
33824;SDS011;20127;48.962;8.342;2023-05-07T14:09:13;5.68;;;4.25;;
33824;SDS011;20127;48.962;8.342;2023-05-07T14:12:15;8.07;;;3.97;;
33824;SDS011;20127;48.962;8.342;2023-05-07T14:15:16;5.05;;;4.03;;
33824;SDS011;20127;48.962;8.342;2023-05-07T14:18:18;6.22;;;5.25;;
33824;SDS011;20127;48.962;8.342;2023-05-07T14:21:21;4.90;;;3.78;;
33824;SDS011;20127;48.962;8.342;2023-05-07T14:24:23;3.53;;;2.58;;
33824;SDS011;20127;48.962;8.342;2023-05-07T14:27:25;3.97;;;1.90;;
33824;SDS011;20127;48.962;8.342;2023-05-07T14:30:27;1.15;;;1.05;;
33824;SDS011;20127;48.962;8.342;2023-05-07T14:33:29;1.25;;;1.15;;
33824;SDS011;20127;48.962;8.342;2023-05-07T14:36:32;3.03;;;1.73;;
33824;SDS011;20127;48.962;8.342;2023-05-07T14:39:33;1.10;;;0.98;;
33824;SDS011;20127;48.962;8.342;2023-05-07T14:42:35;1.15;;;1.05;;
33824;SDS011;20127;48.962;8.342;2023-05-07T14:45:37;1.15;;;1.00;;
33824;SDS011;20127;48.962;8.342;2023-05-07T14:48:39;4.18;;;1.20;;
33824;SDS011;20127;48.962;8.342;2023-05-07T14:51:42;1.63;;;1.00;;
33824;SDS011;20127;48.962;8.342;2023-05-07T14:54:44;3.03;;;1.10;;
33824;SDS011;20127;48.962;8.342;2023-05-07T14:57:46;1.90;;;1.38;;
33824;SDS011;20127;48.962;8.342;2023-05-07T15:00:48;1.85;;;1.35;;
33824;SDS011;20127;48.962;8.342;2023-05-07T15:03:50;2.92;;;1.55;;
33824;SDS011;20127;48.962;8.342;2023-05-07T15:06:53;3.13;;;1.25;;
33824;SDS011;20127;48.962;8.342;2023-05-07T15:09:56;3.42;;;1.35;;
33824;SDS011;20127;48.962;8.342;2023-05-07T15:12:57;3.38;;;1.20;;
33824;SDS011;20127;48.962;8.342;2023-05-07T15:15:59;1.77;;;1.10;;
33824;SDS011;20127;48.962;8.342;2023-05-07T15:19:01;1.42;;;1.20;;
33824;SDS011;20127;48.962;8.342;2023-05-07T15:22:04;1.60;;;1.45;;
33824;SDS011;20127;48.962;8.342;2023-05-07T15:25:06;2.28;;;1.10;;
33824;SDS011;20127;48.962;8.342;2023-05-07T15:28:08;3.58;;;1.25;;
33824;SDS011;20127;48.962;8.342;2023-05-07T15:31:10;3.38;;;1.40;;
33824;SDS011;20127;48.962;8.342;2023-05-07T15:34:12;2.42;;;1.27;;
33824;SDS011;20127;48.962;8.342;2023-05-07T15:37:16;2.35;;;1.73;;
33824;SDS011;20127;48.962;8.342;2023-05-07T15:40:17;2.33;;;1.65;;
33824;SDS011;20127;48.962;8.342;2023-05-07T15:43:19;3.38;;;1.70;;
33824;SDS011;20127;48.962;8.342;2023-05-07T15:46:22;3.40;;;1.95;;
33824;SDS011;20127;48.962;8.342;2023-05-07T15:49:24;2.10;;;1.88;;
33824;SDS011;20127;48.962;8.342;2023-05-07T15:52:27;4.97;;;2.25;;
33824;SDS011;20127;48.962;8.342;2023-05-07T15:55:29;5.20;;;1.88;;
33824;SDS011;20127;48.962;8.342;2023-05-07T15:58:31;10.85;;;2.00;;
33824;SDS011;20127;48.962;8.342;2023-05-07T16:01:33;2.80;;;2.15;;
33824;SDS011;20127;48.962;8.342;2023-05-07T16:04:34;2.90;;;2.20;;
33824;SDS011;20127;48.962;8.342;2023-05-07T16:07:38;1.85;;;1.75;;
33824;SDS011;20127;48.962;8.342;2023-05-07T16:10:40;7.25;;;1.67;;
33824;SDS011;20127;48.962;8.342;2023-05-07T16:13:41;5.55;;;2.53;;
33824;SDS011;20127;48.962;8.342;2023-05-07T16:16:43;4.80;;;2.50;;
33824;SDS011;20127;48.962;8.342;2023-05-07T16:19:45;10.73;;;3.55;;
33824;SDS011;20127;48.962;8.342;2023-05-07T16:22:48;25.92;;;8.57;;
33824;SDS011;20127;48.962;8.342;2023-05-07T16:25:49;198.45;;;57.63;;
33824;SDS011;20127;48.962;8.342;2023-05-07T16:28:51;473.67;;;165.00;;
33824;SDS011;20127;48.962;8.342;2023-05-07T16:31:53;248.18;;;76.63;;
33824;SDS011;20127;48.962;8.342;2023-05-07T16:34:55;44.65;;;14.23;;
33824;SDS011;20127;48.962;8.342;2023-05-07T16:37:58;4.55;;;3.00;;
33824;SDS011;20127;48.962;8.342;2023-05-07T16:41:00;7.47;;;3.30;;
33824;SDS011;20127;48.962;8.342;2023-05-07T16:44:01;8.27;;;3.45;;
33824;SDS011;20127;48.962;8.342;2023-05-07T16:47:03;7.18;;;3.85;;
33824;SDS011;20127;48.962;8.342;2023-05-07T16:50:05;16.40;;;3.00;;
33824;SDS011;20127;48.962;8.342;2023-05-07T16:53:09;3.17;;;1.65;;
33824;SDS011;20127;48.962;8.342;2023-05-07T16:56:11;6.22;;;3.60;;
33824;SDS011;20127;48.962;8.342;2023-05-07T16:59:12;1.98;;;1.67;;
33824;SDS011;20127;48.962;8.342;2023-05-07T17:02:14;6.15;;;4.22;;
33824;SDS011;20127;48.962;8.342;2023-05-07T17:05:16;2.50;;;2.30;;
33824;SDS011;20127;48.962;8.342;2023-05-07T17:08:20;3.72;;;2.53;;
33824;SDS011;20127;48.962;8.342;2023-05-07T17:11:21;5.30;;;2.63;;
33824;SDS011;20127;48.962;8.342;2023-05-07T17:14:23;5.55;;;3.17;;
33824;SDS011;20127;48.962;8.342;2023-05-07T17:17:25;3.53;;;3.22;;
33824;SDS011;20127;48.962;8.342;2023-05-07T17:20:27;18.27;;;16.77;;
33824;SDS011;20127;48.962;8.342;2023-05-07T17:23:30;3.55;;;3.25;;
33824;SDS011;20127;48.962;8.342;2023-05-07T17:26:31;11.10;;;4.50;;
33824;SDS011;20127;48.962;8.342;2023-05-07T17:29:35;6.38;;;4.38;;
33824;SDS011;20127;48.962;8.342;2023-05-07T17:32:37;5.50;;;3.72;;
33824;SDS011;20127;48.962;8.342;2023-05-07T17:35:38;11.98;;;5.30;;
33824;SDS011;20127;48.962;8.342;2023-05-07T17:38:41;9.57;;;4.53;;
33824;SDS011;20127;48.962;8.342;2023-05-07T17:41:43;6.15;;;3.95;;
33824;SDS011;20127;48.962;8.342;2023-05-07T17:44:45;14.80;;;6.88;;
33824;SDS011;20127;48.962;8.342;2023-05-07T17:47:46;8.43;;;5.20;;
33824;SDS011;20127;48.962;8.342;2023-05-07T17:50:48;20.73;;;8.40;;
33824;SDS011;20127;48.962;8.342;2023-05-07T17:53:51;12.52;;;6.93;;
33824;SDS011;20127;48.962;8.342;2023-05-07T17:56:53;12.13;;;6.68;;
33824;SDS011;20127;48.962;8.342;2023-05-07T17:59:54;7.15;;;5.60;;
33824;SDS011;20127;48.962;8.342;2023-05-07T18:02:56;13.20;;;6.55;;
33824;SDS011;20127;48.962;8.342;2023-05-07T18:05:58;10.05;;;5.82;;
33824;SDS011;20127;48.962;8.342;2023-05-07T18:09:02;7.57;;;6.05;;
33824;SDS011;20127;48.962;8.342;2023-05-07T18:12:05;8.55;;;6.35;;
33824;SDS011;20127;48.962;8.342;2023-05-07T18:15:07;11.85;;;7.20;;
33824;SDS011;20127;48.962;8.342;2023-05-07T18:18:09;13.50;;;7.28;;
33824;SDS011;20127;48.962;8.342;2023-05-07T18:21:11;13.82;;;7.70;;
33824;SDS011;20127;48.962;8.342;2023-05-07T18:24:19;15.75;;;8.77;;